Tres Ritos, New Mexico
Current Conditions -  °F | °C
As of 9:55 PM on Thursday 30 Oct 2014 (Local Time) from KSKX Reporting Station
Clear Clear  
Wind Chill: 36°   Ceiling: Unl
Heat Index: 39°   Visibility: 10mi
Dew Point: 12°   Wind: 5mph
Humidity: 33%   Direction: 90°E
Pressure: 30.41"   Gusts: NA
Location:  36.1892°N, 105.688°W
Report Text: KSKX 310355Z AUTO 09004KT 10SM CLR 04/M11 A3041 RMK AO1
Loading
Personal Weather Stations






























Interactive Weather Map
Tropical Storm Tracking
New forecast layout! Learn more

10-Day Weather Forecast

Advertisements
Track Severe Weather on mobile